Weather observations for the past three days for
Falls City, Brenner Field Airport
| Date | Time (cdt) | Wind (mph) | Vis. (mi.) | Weather | Sky Cond. | Temperature (ºF) | Relative Humidity | Wind Chill (°F) | Heat Index (°F) | Pressure | Precipitation (in) | ||||||
|---|---|---|---|---|---|---|---|---|---|---|---|---|---|---|---|---|---|
| Air | Dwpt | 6 hour | altimeter (in) | sea level (mb) | 1 hr | 3 hr | 6 hr | ||||||||||
| Max. | Min. | ||||||||||||||||
| 10 | 14:53 | Calm | 10.00 | Fair | CLR | 71.1 | 28 | 20% | 30.17 | 1021.3 | |||||||
| 10 | 13:53 | Vrbl 3 | 10.00 | Fair | CLR | 68 | 26.1 | 21% | 30.18 | 1021.7 | |||||||
| 10 | 12:53 | Calm | 10.00 | Fair | CLR | 66.9 | 26.1 | 68 | 52 | 21% | 30.19 | 1022.1 | |||||
| 10 | 11:53 | NE 8 | 10.00 | Fair | CLR | 66 | 27 | 23% | 30.2 | 1022.4 | |||||||
| 10 | 10:53 | E 6 | 10.00 | Fair | CLR | 63 | 25 | 24% | 30.2 | 1022.5 | |||||||
| 10 | 09:53 | Vrbl 7 | 10.00 | Fair | CLR | 62.1 | 27 | 26% | 30.2 | 1022.1 | |||||||
| 10 | 08:53 | E 8 | 10.00 | Fair | CLR | 59 | 25 | 27% | 30.19 | 1022.0 | |||||||
| 10 | 07:53 | NE 3 | 10.00 | Fair | CLR | 55.9 | 28.9 | 36% | 30.16 | 1020.9 | |||||||
| 10 | 06:53 | N 3 | 10.00 | Fair | CLR | 51.1 | 30 | 60.1 | 51.1 | 45% | 30.13 | 1020.1 | |||||
| 10 | 05:53 | N 5 | 10.00 | Fair | CLR | 53.1 | 28.9 | 40% | 30.14 | 1020.2 | |||||||
| 10 | 04:53 | NE 6 | 10.00 | Fair | CLR | 54 | 28 | 37% | 30.11 | 1019.1 | |||||||
| 10 | 03:53 | NE 6 | 10.00 | Fair | CLR | 55.9 | 28 | 34% | 30.09 | 1018.6 | |||||||
| 10 | 02:53 | NE 8 | 10.00 | Fair | CLR | 57.9 | 28.9 | 33% | 30.06 | 1017.2 | |||||||
| 10 | 01:53 | NE 9 | 10.00 | Mostly Cloudy | BKN120 | 59 | 28.9 | 32% | 30.03 | 1016.4 | |||||||
| 10 | 00:53 | NE 6 | 10.00 | A Few Clouds | FEW120 | 59 | 37.9 | 73 | 57.9 | 46% | 30.02 | 1015.9 | |||||
| 09 | 23:53 | N 5 | 10.00 | Fair | CLR | 60.1 | 39.9 | 48% | 29.97 | 1014.3 | |||||||
| 09 | 22:53 | Calm | 10.00 | A Few Clouds | FEW120 | 62.1 | 42.1 | 48% | 29.95 | 1013.4 | |||||||
| 09 | 21:53 | N 8 | 10.00 | Partly Cloudy | SCT120 | 64.9 | 43 | 45% | 29.91 | 1012.2 | |||||||
| 09 | 20:53 | N 7 | 10.00 | Mostly Cloudy | BKN110 | 66 | 43 | 43% | 29.87 | 1011.1 | |||||||
| 09 | 19:53 | N 9 | 10.00 | Light Rain | SCT095 BKN120 | 69.1 | 41 | 36% | 29.85 | 1010.4 | |||||||
| 09 | 18:53 | NW 6 | 10.00 | Mostly Cloudy | BKN095 | 73 | 44.1 | 86 | 72 | 35% | 29.83 | 1009.8 | |||||
| 09 | 17:53 | NW 6 | 10.00 | Light Rain | OVC095 | 73.9 | 39 | 28% | 29.81 | 1009.2 | |||||||
| 09 | 16:53 | NW 12 G 18 | 10.00 | Partly Cloudy | SCT110 | 78.1 | 45 | 31% | 78 | 29.78 | 1007.7 | ||||||
| 09 | 15:53 | NW 8 G 25 | 10.00 | Light Rain | FEW060 SCT075 OVC100 | 73.9 | 46.9 | 38% | 29.78 | 1007.8 | |||||||
| 09 | 14:53 | W 15 G 32 | 4.00 | Light Rain | BKN100 | 78.1 | 45 | 31% | 78 | 29.74 | 1006.3 | ||||||
| 09 | 13:53 | SW 16 G 23 | 5.00 | Fair with Haze | CLR | 82.9 | 39 | 21% | 81 | 29.74 | 1006.4 | ||||||
| 09 | 12:53 | SW 12 | 6.00 | Partly Cloudy with Haze | SCT120 | 82 | 39 | 82.9 | 48.9 | 22% | 80 | 29.76 | 1007.0 | ||||
| 09 | 11:53 | SW 10 G 16 | 10.00 | Fair | CLR | 80.1 | 42.1 | 26% | 79 | 29.77 | 1007.4 | ||||||
| 09 | 10:53 | S 6 | 10.00 | Fair | CLR | 75 | 42.1 | 31% | 77 | 29.78 | 1007.8 | ||||||
| 09 | 09:53 | S 3 | 10.00 | Fair | CLR | 68 | 42.1 | 39% | 29.78 | 1008.0 | |||||||
| 09 | 08:53 | W 3 | 10.00 | Fair | CLR | 63 | 43 | 48% | 29.78 | 1008.1 | |||||||
| 09 | 07:53 | W 6 | 10.00 | Fair | CLR | 57 | 43 | 60% | 29.78 | 1008.2 | |||||||
| 09 | 06:53 | NW 3 | 10.00 | Fair | CLR | 48.9 | 43 | 60.1 | 48.9 | 80% | 29.77 | 1007.7 | |||||
| 09 | 05:53 | W 5 | 10.00 | Fair | CLR | 48.9 | 43 | 80% | 48 | 29.76 | 1007.3 | ||||||
| 09 | 04:53 | NW 6 | 10.00 | Fair | CLR | 48.9 | 43 | 80% | 47 | 29.75 | 1007.1 | ||||||
| 09 | 03:53 | W 7 | 10.00 | Fair | CLR | 54 | 44.1 | 69% | 29.76 | 1007.3 | |||||||
| 09 | 02:53 | W 8 | 10.00 | Fair | CLR | 57 | 45 | 64% | 29.75 | 1007.1 | |||||||
| 09 | 01:53 | W 6 | 10.00 | Fair | CLR | 55 | 45 | 69% | 29.76 | 1007.3 | |||||||
| 09 | 00:53 | SW 9 | 10.00 | Fair | CLR | 57.9 | 46.9 | 71.1 | 57 | 67% | 29.75 | 1007.1 | |||||
| 08 | 23:53 | SW 9 | 10.00 | Fair | CLR | 57.9 | 46.9 | 67% | 29.75 | 1007.2 | |||||||
| 08 | 22:53 | SW 12 | 10.00 | Fair | CLR | 60.1 | 46.9 | 62% | 29.76 | 1007.3 | |||||||
| 08 | 21:53 | S 9 | 10.00 | Fair | CLR | 62.1 | 46 | 56% | 29.75 | 1006.9 | |||||||
| 08 | 20:53 | S 8 | 10.00 | Fair | CLR | 64 | 46 | 52% | 29.73 | 1006.3 | |||||||
| 08 | 19:53 | S 8 | 10.00 | Fair | CLR | 68 | 45 | 44% | 29.73 | 1006.3 | |||||||
| 08 | 18:53 | S 8 | 10.00 | Fair | CLR | 71.1 | 45 | 71.1 | 66.9 | 39% | 29.73 | 1006.3 | |||||
| 08 | 17:53 | S 8 | 10.00 | Fair | CLR | 70 | 46.9 | 44% | 29.74 | 1006.7 | |||||||
| 08 | 16:53 | S 9 | 10.00 | Fair | CLR | 69.1 | 48 | 47% | 29.76 | 1007.3 | |||||||
| 08 | 15:53 | S 9 | 10.00 | Fair | CLR | 70 | 46 | 42% | 29.77 | 1007.7 | |||||||
| 08 | 14:53 | S 10 | 10.00 | A Few Clouds | FEW120 | 69.1 | 39.9 | 35% | 29.77 | 1007.8 | |||||||
| 08 | 13:53 | SE 6 | 10.00 | Mostly Cloudy | BKN110 | 69.1 | 42.1 | 38% | 29.78 | 1008.0 | |||||||
| 08 | 12:53 | E 12 | 10.00 | Fair | CLR | 68 | 44.1 | 68 | 53.1 | 42% | 29.78 | 1008.1 | |||||
| 08 | 11:53 | SE 9 | 10.00 | Overcast | OVC090 | 63 | 46.9 | 56% | 29.81 | 1009.1 | |||||||
| 08 | 10:53 | S 9 | 10.00 | A Few Clouds | FEW120 | 64 | 45 | 50% | 29.8 | 1008.8 | |||||||
| 08 | 09:53 | E 8 | 10.00 | Fair | CLR | 63 | 45 | 52% | 29.81 | 1008.8 | |||||||
| 08 | 08:53 | NE 8 | 10.00 | Fair | CLR | 60.1 | 45 | 58% | 29.8 | 1008.7 | |||||||
| 08 | 07:53 | NE 5 | 10.00 | Mostly Cloudy | BKN100 | 55.9 | 45 | 67% | 29.8 | 1008.7 | |||||||
| 08 | 06:53 | SE 5 | 10.00 | A Few Clouds | FEW110 | 53.1 | 44.1 | 59 | 48.9 | 72% | 29.78 | 1007.7 | |||||
| 08 | 05:53 | Calm | 10.00 | Mostly Cloudy | BKN100 | 52 | 44.1 | 75% | 29.79 | 1008.1 | |||||||
| 08 | 04:53 | Calm | 10.00 | Mostly Cloudy | BKN100 | 53.1 | 41 | 64% | 29.78 | 1007.8 | |||||||
| 08 | 03:53 | N 3 | 10.00 | Mostly Cloudy | FEW034 BKN110 | 51.1 | 39 | 64% | 29.79 | 1008.2 | |||||||
| 08 | 02:53 | NE 3 | 10.00 | Fair | CLR | 51.1 | 35.1 | 54% | 29.78 | 1008.1 | |||||||
| 08 | 01:53 | Calm | 10.00 | Fair | CLR | 52 | 35.1 | 53% | 29.8 | 1008.8 | |||||||
| 08 | 00:53 | Calm | 10.00 | Fair | CLR | 57.9 | 34 | 75.9 | 55.9 | 41% | 29.81 | 1009.1 | |||||
| 07 | 23:53 | SE 6 | 10.00 | Fair | CLR | 62.1 | 30.9 | 31% | 29.82 | 1009.3 | |||||||
| 07 | 22:53 | Calm | 10.00 | Fair | CLR | 62.1 | 30.9 | 31% | 29.83 | 1009.6 | |||||||
| 07 | 21:53 | Calm | 10.00 | Fair | CLR | 64.9 | 28.9 | 26% | 29.82 | 1009.4 | |||||||
| 07 | 20:53 | N 3 | 10.00 | Overcast | OVC120 | 68 | 28 | 22% | 29.79 | 1008.3 | |||||||
| 07 | 19:53 | N 7 | 10.00 | Fair | CLR | 72 | 28.9 | 20% | 29.76 | 1007.3 | |||||||
| 07 | 18:53 | W 13 G 18 | 10.00 | Fair | CLR | 75.9 | 33.1 | 77 | 66.9 | 21% | 76 | 29.75 | 1007.1 | ||||
| 07 | 17:53 | SW 15 | 10.00 | Partly Cloudy | SCT100 | 75.9 | 37 | 25% | 77 | 29.76 | 1007.4 | ||||||
| 07 | 16:53 | SW 14 G 28 | 10.00 | A Few Clouds | FEW100 | 75.9 | 35.1 | 23% | 77 | 29.78 | 1007.9 | ||||||
| Date | Time (cdt) | Wind (mph) | Vis. (mi.) | Weather | Sky Cond. | Air | Dwpt | Max. | Min. | Relative Humidity | Wind Chill (°F) | Heat Index (°F) | altimeter (in) | sea level (mb) | 1 hr | 3 hr | 6 hr |
| 6 hour | |||||||||||||||||
| Temperature (ºF) | Pressure | Precipitation (in) | |||||||||||||||